Terminal Aerodrome Forecast
Issued by NWS

Home | Current Version | Previous Version | Graphics & Text | Print | Product List | Glossary On
Versions: 1 2 3 4 5 6 7 8 9 10 11 12 13 14 15 16 17 18
063
FTUS43 KBIS 081738
TAFDIK
TAF
KDIK 081738Z 0818/0918 30018G27KT P6SM BKN120 OVC150
     FM090100 31013KT P6SM FEW120
     FM090500 30010KT P6SM SKC
     FM091200 28009KT P6SM FEW250=

USA.gov is the U.S. government's official web portal to all federal, state and local government web resources and services.